Time;durP1;ratioP1;P1;durP2;ratioP2;P2;SDS_P1;SDS_P2;PMS_P1;PMS_P2;Temp;Humidity;BMP_temperature;BMP_pressure;BME280_temperature;BME280_humidity;BME280_pressure;Samples;Min_cycle;Max_cycle;Signal;HPM_P1;HPM_P2
2021/06/19 00:01:31;;;;;;;7.63;4.80;;;23.10;66.30;;;;;;6241008;23;20084;-80
2021/06/19 00:03:58;;;;;;;6.28;4.35;;;23.10;65.90;;;;;;6223571;23;20460;-82
2021/06/19 00:06:25;;;;;;;7.28;4.82;;;23.10;66.60;;;;;;6249433;23;20236;-81
2021/06/19 00:08:59;;;;;;;7.63;5.25;;;23.10;67.20;;;;;;6222567;23;20742;-81
2021/06/19 00:11:28;;;;;;;8.57;5.20;;;23.10;68.50;;;;;;6222148;23;20050;-80
2021/06/19 00:13:56;;;;;;;8.70;4.75;;;23.00;69.30;;;;;;6225551;23;20031;-80
2021/06/19 00:16:25;;;;;;;7.40;4.95;;;22.90;69.70;;;;;;6225046;23;20024;-80
2021/06/19 00:18:52;;;;;;;10.23;5.00;;;22.80;69.90;;;;;;6224527;23;20020;-80
2021/06/19 00:21:19;;;;;;;7.70;5.18;;;22.70;70.60;;;;;;6219711;23;20077;-80
2021/06/19 00:23:47;;;;;;;9.30;5.93;;;22.70;70.90;;;;;;6223118;23;20059;-81
2021/06/19 00:26:14;;;;;;;11.30;5.90;;;22.60;71.40;;;;;;6224332;23;20028;-80
2021/06/19 00:28:42;;;;;;;7.88;5.40;;;22.60;71.90;;;;;;6225607;23;20067;-81
2021/06/19 00:31:10;;;;;;;12.73;5.25;;;22.60;71.90;;;;;;6224999;23;20245;-82
2021/06/19 00:33:39;;;;;;;8.65;4.97;;;22.60;71.70;;;;;;6225136;23;20366;-80
2021/06/19 00:36:06;;;;;;;7.35;4.47;;;22.40;70.10;;;;;;6225338;23;20031;-81
2021/06/19 00:38:34;;;;;;;8.88;4.15;;;22.30;69.50;;;;;;6222930;23;20024;-81
2021/06/19 00:41:01;;;;;;;10.45;4.28;;;22.10;69.90;;;;;;6225621;23;20016;-81
2021/06/19 00:43:30;;;;;;;6.57;4.57;;;22.10;70.10;;;;;;6226135;23;20040;-81
2021/06/19 00:45:59;;;;;;;7.72;4.47;;;22.10;70.00;;;;;;6225018;23;20071;-80
2021/06/19 00:48:28;;;;;;;7.13;4.28;;;22.10;69.90;;;;;;6223471;23;20026;-80
2021/06/19 00:51:06;;;;;;;9.40;4.26;;;22.10;69.90;;;;;;5995439;22;10000623;-79
2021/06/19 00:53:34;;;;;;;10.63;4.30;;;22.10;70.90;;;;;;856830;23;10001299;-82
2021/06/19 00:56:02;;;;;;;9.68;4.68;;;22.00;70.90;;;;;;6225115;23;20031;-82
2021/06/19 00:58:30;;;;;;;7.50;4.28;;;22.10;70.80;;;;;;6224359;23;20028;-81
2021/06/19 01:00:58;;;;;;;7.43;4.25;;;22.10;70.00;;;;;;6246168;23;20362;-81
2021/06/19 01:03:25;;;;;;;5.95;4.00;;;22.20;69.70;;;;;;6227599;23;20016;-82
2021/06/19 01:05:52;;;;;;;7.00;4.50;;;22.30;69.70;;;;;;6226996;23;20017;-80
2021/06/19 01:08:21;;;;;;;7.18;4.47;;;22.40;69.60;;;;;;6227489;23;20017;-80
2021/06/19 01:10:48;;;;;;;12.02;4.53;;;22.40;69.70;;;;;;6225686;23;20021;-81
2021/06/19 01:13:16;;;;;;;9.48;4.80;;;22.40;69.40;;;;;;6223643;23;20212;-81
2021/06/19 01:15:43;;;;;;;7.68;4.65;;;22.40;69.60;;;;;;6224128;23;20027;-81
2021/06/19 01:18:10;;;;;;;5.72;4.13;;;22.40;70.30;;;;;;6223554;23;20020;-80
2021/06/19 01:20:38;;;;;;;9.95;4.15;;;22.50;69.70;;;;;;6222496;23;20071;-80
2021/06/19 01:23:05;;;;;;;6.95;4.28;;;22.40;69.70;;;;;;6223634;23;20328;-81
2021/06/19 01:25:36;;;;;;;9.07;4.38;;;22.20;70.20;;;;;;6223199;23;20040;-81
2021/06/19 01:28:07;;;;;;;7.35;4.85;;;22.10;70.20;;;;;;6223775;23;20343;-81
2021/06/19 01:30:35;;;;;;;9.80;4.90;;;22.10;70.60;;;;;;6220509;23;20316;-82
2021/06/19 01:33:03;;;;;;;6.53;4.30;;;22.00;70.90;;;;;;6222408;23;20232;-82
2021/06/19 01:35:30;;;;;;;8.73;4.20;;;21.90;71.00;;;;;;6245036;23;20036;-82
2021/06/19 01:37:59;;;;;;;5.93;3.72;;;21.90;71.10;;;;;;6195932;23;20027;-81
2021/06/19 01:40:28;;;;;;;11.40;4.45;;;21.80;71.20;;;;;;6221563;23;20112;-81
2021/06/19 01:42:58;;;;;;;6.53;4.10;;;21.90;71.10;;;;;;6223740;23;20016;-81
2021/06/19 01:45:27;;;;;;;7.15;4.20;;;21.90;71.10;;;;;;6223471;23;20300;-81
2021/06/19 01:47:55;;;;;;;7.25;4.40;;;21.90;71.40;;;;;;6222816;23;20032;-80
2021/06/19 01:50:24;;;;;;;7.32;5.03;;;21.90;71.30;;;;;;6223947;23;20065;-81
2021/06/19 01:52:54;;;;;;;7.60;4.18;;;22.00;71.30;;;;;;6220017;23;20346;-81
2021/06/19 01:55:22;;;;;;;10.52;4.53;;;22.00;71.30;;;;;;6224077;23;20315;-81
2021/06/19 01:57:52;;;;;;;10.43;5.38;;;22.10;71.10;;;;;;6220580;23;20251;-81
2021/06/19 02:00:23;;;;;;;9.43;4.72;;;22.10;71.50;;;;;;6217426;23;20024;-81
2021/06/19 02:02:50;;;;;;;7.75;4.65;;;22.10;71.70;;;;;;6225393;23;20016;-80
2021/06/19 02:05:19;;;;;;;9.18;4.95;;;22.10;71.60;;;;;;6225188;23;20043;-81
2021/06/19 02:07:47;;;;;;;8.40;5.30;;;22.10;71.50;;;;;;6224182;23;20028;-80
2021/06/19 02:10:15;;;;;;;10.50;5.23;;;22.20;71.80;;;;;;6225076;23;20086;-81
2021/06/19 02:12:43;;;;;;;8.73;4.85;;;22.10;72.00;;;;;;6225560;23;20087;-80
2021/06/19 02:15:11;;;;;;;9.23;4.93;;;22.10;73.30;;;;;;6226698;23;20016;-80
2021/06/19 02:17:40;;;;;;;7.70;4.32;;;22.20;73.70;;;;;;6226562;23;20203;-81
2021/06/19 02:20:09;;;;;;;7.80;4.75;;;22.10;73.70;;;;;;6227120;23;20013;-81
2021/06/19 02:22:38;;;;;;;7.70;5.03;;;22.20;73.50;;;;;;6220872;23;20033;-81
2021/06/19 02:25:07;;;;;;;9.55;5.15;;;22.20;73.00;;;;;;6223825;23;20048;-81
2021/06/19 02:27:34;;;;;;;9.73;5.03;;;22.30;72.70;;;;;;6247908;23;20066;-81
2021/06/19 02:30:02;;;;;;;7.75;5.45;;;22.30;72.70;;;;;;6223323;23;20108;-81
2021/06/19 02:32:29;;;;;;;6.60;4.93;;;22.40;72.40;;;;;;6222583;23;20219;-82
2021/06/19 02:34:58;;;;;;;8.48;5.47;;;22.30;72.40;;;;;;6223132;23;20035;-80
2021/06/19 02:37:25;;;;;;;8.00;5.10;;;22.40;72.70;;;;;;6223803;23;20024;-80
2021/06/19 02:39:52;;;;;;;9.70;5.82;;;22.30;72.70;;;;;;6222402;23;20013;-81
2021/06/19 02:42:20;;;;;;;13.35;6.13;;;22.40;73.20;;;;;;6222670;23;20025;-81
2021/06/19 02:44:47;;;;;;;6.85;4.68;;;22.30;74.00;;;;;;6223435;23;20024;-80
2021/06/19 02:47:15;;;;;;;12.23;4.63;;;22.10;74.90;;;;;;6223188;23;20048;-80
2021/06/19 02:49:42;;;;;;;14.57;5.53;;;22.00;76.00;;;;;;6222834;23;20372;-81
2021/06/19 02:52:11;;;;;;;12.23;4.63;;;21.80;77.00;;;;;;6223881;23;20398;-81
2021/06/19 02:54:40;;;;;;;7.13;4.50;;;21.80;77.70;;;;;;6224530;23;20024;-81
2021/06/19 02:57:09;;;;;;;9.57;5.10;;;21.80;77.00;;;;;;6221398;23;20048;-81
2021/06/19 02:59:38;;;;;;;8.95;4.70;;;22.00;77.00;;;;;;6222371;23;20031;-81
2021/06/19 03:02:05;;;;;;;9.27;5.05;;;21.80;77.30;;;;;;6241740;23;20036;-80
2021/06/19 03:04:33;;;;;;;10.50;5.07;;;21.80;77.40;;;;;;6220384;23;20398;-80
2021/06/19 03:07:00;;;;;;;7.82;4.97;;;21.80;77.40;;;;;;6222095;23;20285;-80
2021/06/19 03:09:30;;;;;;;7.93;4.75;;;21.80;76.40;;;;;;6221486;23;20208;-80
2021/06/19 03:11:57;;;;;;;11.27;5.57;;;21.90;76.10;;;;;;6219102;23;20063;-81
2021/06/19 03:14:27;;;;;;;8.73;6.30;;;22.00;76.00;;;;;;6221943;23;20244;-80
2021/06/19 03:16:55;;;;;;;11.73;6.13;;;22.00;76.60;;;;;;6217451;23;20028;-80
2021/06/19 03:19:22;;;;;;;7.75;5.80;;;22.00;77.00;;;;;;6221600;23;20327;-80
2021/06/19 03:21:49;;;;;;;11.70;6.68;;;22.00;77.90;;;;;;6220274;23;20024;-80
2021/06/19 03:24:16;;;;;;;8.98;5.93;;;21.90;78.90;;;;;;6220615;23;20025;-80
2021/06/19 03:26:45;;;;;;;14.45;6.43;;;21.80;79.10;;;;;;6243503;23;20021;-80
2021/06/19 03:29:13;;;;;;;17.38;7.28;;;21.70;79.90;;;;;;6220780;23;20020;-81
2021/06/19 03:31:41;;;;;;;9.68;6.55;;;21.60;80.10;;;;;;6220650;23;20020;-81
2021/06/19 03:34:08;;;;;;;12.50;6.50;;;21.60;80.60;;;;;;6220555;23;20029;-81
2021/06/19 03:36:35;;;;;;;10.93;5.82;;;21.60;80.50;;;;;;6219068;23;20024;-82
2021/06/19 03:39:02;;;;;;;12.15;7.07;;;21.70;80.50;;;;;;6220770;23;20020;-81
2021/06/19 03:41:30;;;;;;;11.70;5.80;;;21.60;80.70;;;;;;6245403;23;20037;-81
2021/06/19 03:43:58;;;;;;;12.15;5.65;;;21.60;80.20;;;;;;6219081;23;20427;-81
2021/06/19 03:46:26;;;;;;;7.47;5.00;;;21.50;80.60;;;;;;6221673;23;20401;-80
2021/06/19 03:48:53;;;;;;;11.90;5.70;;;21.50;80.60;;;;;;6222743;23;20035;-79
2021/06/19 03:51:20;;;;;;;8.82;5.40;;;21.50;80.30;;;;;;6237922;23;20082;-79
2021/06/19 03:53:47;;;;;;;9.07;4.85;;;21.60;80.20;;;;;;6226281;23;20028;-79
2021/06/19 03:56:15;;;;;;;10.15;6.15;;;21.60;80.10;;;;;;6227591;23;20024;-79
2021/06/19 03:58:42;;;;;;;9.65;5.70;;;21.60;80.60;;;;;;6226403;23;20199;-80
2021/06/19 04:01:11;;;;;;;11.63;6.70;;;21.60;80.70;;;;;;6221911;23;20027;-79
2021/06/19 04:03:38;;;;;;;12.38;5.82;;;21.50;80.90;;;;;;6223552;23;20035;-78
2021/06/19 04:06:06;;;;;;;9.93;6.00;;;21.50;81.00;;;;;;6223838;23;20029;-79
2021/06/19 04:08:33;;;;;;;11.90;6.35;;;21.50;81.20;;;;;;6225098;23;20040;-79
2021/06/19 04:11:01;;;;;;;9.02;5.88;;;21.50;81.40;;;;;;6226247;23;20020;-79
2021/06/19 04:13:30;;;;;;;9.88;5.30;;;21.60;81.10;;;;;;6224226;23;20035;-79
2021/06/19 04:15:57;;;;;;;9.77;5.78;;;21.70;80.70;;;;;;6222420;23;20009;-80
2021/06/19 04:18:28;;;;;;;11.18;6.20;;;21.70;80.60;;;;;;6223905;23;20025;-78
2021/06/19 04:20:55;;;;;;;12.90;6.07;;;21.70;80.30;;;;;;6223171;23;20024;-80
2021/06/19 04:23:22;;;;;;;13.02;6.00;;;21.70;80.20;;;;;;6222584;23;20032;-79
2021/06/19 04:25:49;;;;;;;10.55;6.38;;;21.60;80.10;;;;;;6222911;23;20302;-79
2021/06/19 04:28:16;;;;;;;10.23;5.78;;;21.70;79.90;;;;;;6225333;23;20080;-79
2021/06/19 04:30:44;;;;;;;10.45;5.97;;;21.80;79.70;;;;;;6223419;23;20020;-80
2021/06/19 04:33:11;;;;;;;8.82;6.55;;;21.80;79.60;;;;;;6224060;23;20020;-78
2021/06/19 04:35:41;;;;;;;11.77;6.50;;;21.90;79.50;;;;;;6222155;23;20031;-79
2021/06/19 04:38:08;;;;;;;9.32;6.10;;;21.90;79.50;;;;;;6222217;23;20021;-79
2021/06/19 04:40:39;;;;;;;12.63;6.05;;;21.90;79.60;;;;;;6223701;23;20022;-79
2021/06/19 04:43:07;;;;;;;12.15;6.07;;;21.90;79.80;;;;;;6222113;23;20201;-80
2021/06/19 04:45:36;;;;;;;12.23;6.50;;;21.90;79.70;;;;;;6224977;23;20111;-79
2021/06/19 04:48:05;;;;;;;14.25;7.93;;;22.00;79.60;;;;;;6223209;23;20030;-79
2021/06/19 04:50:34;;;;;;;10.40;6.20;;;21.90;79.70;;;;;;6245998;23;20024;-79
2021/06/19 04:53:04;;;;;;;11.23;5.53;;;21.80;80.00;;;;;;6222084;23;20032;-79
2021/06/19 04:55:31;;;;;;;;;;;21.80;80.00;;;;;;6221618;23;20021;-79
2021/06/19 04:58:02;;;;;;;11.95;5.40;;;21.80;80.10;;;;;;6221821;23;19942;-79
2021/06/19 05:00:30;;;;;;;12.60;7.00;;;21.90;80.20;;;;;;6215887;23;20025;-79
2021/06/19 05:02:58;;;;;;;10.25;5.35;;;21.90;80.10;;;;;;6220564;23;20021;-80
2021/06/19 05:05:28;;;;;;;11.32;5.78;;;22.00;80.10;;;;;;6222411;23;20307;-79
2021/06/19 05:07:55;;;;;;;8.60;5.78;;;22.10;79.60;;;;;;6220115;23;20047;-79
2021/06/19 05:10:24;;;;;;;10.00;5.88;;;22.10;79.40;;;;;;6218124;23;20024;-79
2021/06/19 05:12:51;;;;;;;9.17;6.20;;;22.20;78.90;;;;;;6219465;23;20063;-79
2021/06/19 05:15:24;;;;;;;10.95;6.15;;;22.30;78.90;;;;;;6221493;23;20091;-80
2021/06/19 05:17:51;;;;;;;10.77;5.90;;;22.60;77.80;;;;;;6220162;23;20079;-80
2021/06/19 05:20:19;;;;;;;10.18;5.90;;;22.70;77.80;;;;;;6218686;23;20039;-79
2021/06/19 05:22:46;;;;;;;9.98;6.82;;;22.90;76.60;;;;;;6220919;23;20223;-80
2021/06/19 05:25:14;;;;;;;8.63;5.57;;;23.10;76.20;;;;;;6220458;23;20017;-80
2021/06/19 05:27:43;;;;;;;10.02;5.90;;;23.20;75.40;;;;;;6222139;23;20257;-80
2021/06/19 05:30:11;;;;;;;12.18;6.53;;;23.20;75.20;;;;;;6222160;23;20019;-80
2021/06/19 05:32:38;;;;;;;14.35;7.32;;;23.30;74.80;;;;;;6222286;23;20028;-81
2021/06/19 05:35:07;;;;;;;9.73;5.80;;;23.30;75.30;;;;;;6218794;23;20327;-81
2021/06/19 05:37:34;;;;;;;8.13;6.05;;;23.20;75.80;;;;;;6244812;23;20323;-81
2021/06/19 05:40:01;;;;;;;11.13;6.00;;;23.30;74.30;;;;;;6219515;23;20031;-80
2021/06/19 05:42:28;;;;;;;9.63;6.55;;;23.10;75.00;;;;;;6221633;23;20200;-81
2021/06/19 05:44:57;;;;;;;10.90;5.60;;;23.10;75.50;;;;;;6222106;23;20024;-81
2021/06/19 05:47:26;;;;;;;9.43;5.68;;;23.20;75.10;;;;;;6220956;23;20385;-82
2021/06/19 05:49:53;;;;;;;13.23;6.25;;;23.20;75.20;;;;;;6222935;23;20304;-82
2021/06/19 05:52:22;;;;;;;7.70;5.72;;;23.10;75.20;;;;;;6222652;23;20025;-80
2021/06/19 05:54:49;;;;;;;9.15;6.07;;;23.10;75.10;;;;;;6221524;23;20031;-80
2021/06/19 05:57:17;;;;;;;11.35;6.78;;;23.00;75.80;;;;;;6223516;23;20056;-81
2021/06/19 05:59:44;;;;;;;10.77;6.40;;;22.90;76.30;;;;;;6220810;23;20020;-80
2021/06/19 06:02:12;;;;;;;11.95;6.72;;;22.90;76.20;;;;;;6219794;23;20494;-80
2021/06/19 06:04:40;;;;;;;10.45;6.05;;;22.70;76.90;;;;;;6244361;23;20029;-81
2021/06/19 06:07:07;;;;;;;10.90;7.72;;;22.80;76.70;;;;;;6217696;23;20032;-79
2021/06/19 06:09:34;;;;;;;9.60;6.78;;;22.90;76.50;;;;;;6220551;23;20255;-80
2021/06/19 06:12:01;;;;;;;14.02;7.05;;;22.90;76.60;;;;;;6221342;23;20230;-81
2021/06/19 06:14:29;;;;;;;9.57;6.72;;;22.80;77.20;;;;;;6222984;23;20075;-80
2021/06/19 06:16:56;;;;;;;12.38;7.50;;;22.80;77.50;;;;;;6222092;23;20024;-80
2021/06/19 06:19:25;;;;;;;12.02;7.72;;;23.00;77.30;;;;;;6221134;23;20343;-80
2021/06/19 06:21:53;;;;;;;;;;;23.10;77.00;;;;;;6221910;23;20083;-79
2021/06/19 06:24:21;;;;;;;9.95;6.25;;;23.10;75.30;;;;;;6220120;23;19971;-80
2021/06/19 06:26:48;;;;;;;9.02;5.28;;;23.10;74.70;;;;;;6221650;23;20383;-81
2021/06/19 06:29:16;;;;;;;11.68;7.28;;;23.20;73.70;;;;;;6223362;23;20264;-80
2021/06/19 06:31:43;;;;;;;9.85;5.30;;;23.40;70.90;;;;;;6220629;23;20032;-80
2021/06/19 06:34:11;;;;;;;9.40;5.88;;;23.60;70.30;;;;;;6219743;23;20228;-80
2021/06/19 06:36:39;;;;;;;12.45;6.35;;;23.70;69.90;;;;;;6219573;23;20313;-80
2021/06/19 06:39:07;;;;;;;10.27;5.82;;;23.80;69.70;;;;;;6220258;23;20185;-80
2021/06/19 06:41:34;;;;;;;16.30;6.43;;;23.90;69.20;;;;;;6219897;23;20320;-79
2021/06/19 06:44:01;;;;;;;9.57;5.75;;;24.00;69.00;;;;;;6218288;23;20028;-79
2021/06/19 06:46:33;;;;;;;15.27;6.60;;;24.00;68.30;;;;;;6220869;23;20024;-80
2021/06/19 06:49:00;;;;;;;12.68;6.38;;;24.10;68.20;;;;;;6218397;23;20063;-79
2021/06/19 06:51:34;;;;;;;9.45;5.47;;;24.10;68.40;;;;;;6217733;23;20363;-79
2021/06/19 06:54:03;;;;;;;9.63;5.85;;;24.30;68.30;;;;;;6218391;23;20028;-80
2021/06/19 06:56:30;;;;;;;9.88;6.30;;;24.40;67.80;;;;;;6219270;23;20077;-80
2021/06/19 06:58:57;;;;;;;13.07;5.95;;;24.50;67.90;;;;;;6217537;23;20098;-80
2021/06/19 07:01:24;;;;;;;13.77;6.50;;;24.60;66.50;;;;;;6212694;23;20017;-80
2021/06/19 07:03:55;;;;;;;16.90;6.00;;;24.70;66.30;;;;;;6226194;23;20420;-79
2021/06/19 07:06:23;;;;;;;11.25;5.30;;;24.80;66.20;;;;;;6224515;23;20060;-80
2021/06/19 07:08:50;;;;;;;17.20;6.50;;;24.90;66.10;;;;;;6219405;23;20025;-80
2021/06/19 07:11:19;;;;;;;11.85;5.35;;;25.00;65.10;;;;;;6218164;23;20044;-80
2021/06/19 07:13:47;;;;;;;11.73;5.77;;;25.10;64.80;;;;;;6221016;23;20031;-80
2021/06/19 07:16:14;;;;;;;8.15;4.80;;;25.10;64.80;;;;;;6220662;23;20438;-80
2021/06/19 07:18:41;;;;;;;13.93;6.57;;;25.30;64.20;;;;;;6221818;23;20031;-81
2021/06/19 07:21:08;;;;;;;14.65;6.10;;;25.40;63.90;;;;;;6218242;23;20028;-80
2021/06/19 07:23:37;;;;;;;11.68;5.45;;;25.40;63.30;;;;;;6219618;23;20269;-80
2021/06/19 07:26:04;;;;;;;11.65;5.07;;;25.50;63.30;;;;;;6221317;23;20062;-80
2021/06/19 07:28:33;;;;;;;7.55;5.07;;;25.60;62.90;;;;;;6220907;23;20036;-80
2021/06/19 07:31:00;;;;;;;14.77;5.67;;;25.60;62.90;;;;;;6223370;23;20068;-80
2021/06/19 07:33:28;;;;;;;11.07;5.20;;;25.80;62.40;;;;;;6222248;23;20391;-77
2021/06/19 07:35:57;;;;;;;8.00;5.30;;;25.90;62.20;;;;;;6222964;23;20330;-77
2021/06/19 07:38:24;;;;;;;10.73;4.75;;;26.00;62.30;;;;;;6220617;23;20021;-77
2021/06/19 07:40:51;;;;;;;10.65;4.95;;;26.10;62.30;;;;;;6222071;23;20178;-77
2021/06/19 07:43:19;;;;;;;8.82;4.80;;;26.20;61.40;;;;;;6219845;23;20035;-78
2021/06/19 07:45:47;;;;;;;10.30;5.05;;;26.40;61.30;;;;;;6221039;23;20040;-78
2021/06/19 07:48:14;;;;;;;7.10;4.80;;;26.60;60.10;;;;;;6221477;23;20031;-78
2021/06/19 07:50:41;;;;;;;10.52;5.25;;;26.70;60.40;;;;;;6223695;23;20024;-80
2021/06/19 07:53:09;;;;;;;8.93;4.90;;;26.70;59.90;;;;;;6221996;23;20247;-78
2021/06/19 07:55:36;;;;;;;7.90;3.97;;;26.80;59.50;;;;;;6224496;23;20079;-79
2021/06/19 07:58:03;;;;;;;8.68;5.05;;;26.90;58.90;;;;;;6222222;23;20020;-79
2021/06/19 08:00:31;;;;;;;7.72;4.57;;;26.90;58.50;;;;;;6242168;23;20020;-77
2021/06/19 08:03:00;;;;;;;8.45;4.35;;;27.00;58.20;;;;;;6219884;23;20059;-77
2021/06/19 08:05:29;;;;;;;7.18;4.00;;;27.00;58.40;;;;;;6221197;23;20031;-77
2021/06/19 08:07:57;;;;;;;7.05;3.53;;;27.10;58.20;;;;;;6220255;23;20059;-78
2021/06/19 08:10:25;;;;;;;10.20;4.63;;;27.20;57.30;;;;;;6225757;23;20044;-79
2021/06/19 08:12:55;;;;;;;7.03;3.90;;;27.20;56.80;;;;;;6224789;23;20059;-79
2021/06/19 08:15:23;;;;;;;8.20;4.82;;;27.30;56.70;;;;;;6229428;23;20016;-79
2021/06/19 08:17:51;;;;;;;9.00;3.47;;;27.20;57.40;;;;;;6227746;23;20055;-78
2021/06/19 08:20:20;;;;;;;9.75;3.28;;;27.20;55.80;;;;;;6232531;23;20025;-79
2021/06/19 08:22:48;;;;;;;8.85;4.20;;;27.30;56.00;;;;;;6229306;23;20021;-78
2021/06/19 08:25:15;;;;;;;5.57;2.75;;;27.40;55.50;;;;;;6228731;23;20054;-79
2021/06/19 08:27:43;;;;;;;7.43;3.10;;;27.60;54.30;;;;;;6230793;23;20220;-79
2021/06/19 08:30:15;;;;;;;7.07;3.75;;;27.70;54.50;;;;;;6226288;23;20028;-80
2021/06/19 08:32:43;;;;;;;5.97;3.30;;;27.90;54.20;;;;;;6228021;23;20069;-80
2021/06/19 08:35:11;;;;;;;5.47;3.22;;;28.00;54.00;;;;;;6224577;23;20035;-78
2021/06/19 08:37:40;;;;;;;12.60;3.77;;;28.00;53.10;;;;;;6227345;23;20231;-80
2021/06/19 08:40:09;;;;;;;7.78;3.47;;;28.00;53.30;;;;;;6252825;23;20124;-79
2021/06/19 08:42:37;;;;;;;10.23;5.03;;;28.00;53.80;;;;;;6252735;23;20047;-79
2021/06/19 08:45:07;;;;;;;11.13;3.92;;;28.10;53.70;;;;;;6228019;23;20027;-79
2021/06/19 08:47:37;;;;;;;7.53;4.10;;;28.10;53.70;;;;;;6227176;23;20020;-79
2021/06/19 08:50:08;;;;;;;8.02;3.50;;;28.20;54.00;;;;;;6229084;23;20031;-79
2021/06/19 08:52:36;;;;;;;10.65;3.67;;;28.40;52.90;;;;;;6228085;23;20013;-78
2021/06/19 08:55:06;;;;;;;7.25;3.65;;;28.50;52.50;;;;;;6226927;23;20232;-78
2021/06/19 08:57:33;;;;;;;7.40;4.05;;;28.50;52.60;;;;;;6229136;23;20032;-79
2021/06/19 09:00:01;;;;;;;6.85;3.05;;;28.30;52.80;;;;;;6230243;23;20025;-80
2021/06/19 09:02:29;;;;;;;9.60;4.07;;;28.40;52.60;;;;;;6249706;23;20016;-78
2021/06/19 09:04:58;;;;;;;10.63;3.63;;;28.50;53.10;;;;;;6227561;23;20016;-78
2021/06/19 09:07:43;;;;;;;7.72;3.53;;;28.60;52.70;;;;;;6226068;23;20028;-78
2021/06/19 09:10:20;;;;;;;7.25;3.78;;;28.80;52.30;;;;;;6225914;23;20028;-79
2021/06/19 09:13:06;;;;;;;7.85;3.65;;;28.80;52.00;;;;;;6222160;23;20414;-78
2021/06/19 09:15:36;;;;;;;7.82;3.33;;;28.60;52.00;;;;;;6225772;23;20028;-78
2021/06/19 09:18:06;;;;;;;8.10;3.95;;;28.70;52.70;;;;;;6229111;23;20043;-78
2021/06/19 09:20:47;;;;;;;8.68;3.63;;;28.90;51.40;;;;;;6227726;23;20307;-78
2021/06/19 09:23:15;;;;;;;12.48;3.75;;;28.90;51.20;;;;;;6227075;23;20036;-78
2021/06/19 09:25:44;;;;;;;8.95;3.50;;;28.90;50.80;;;;;;6222824;23;20032;-78
2021/06/19 09:28:12;;;;;;;;;;;29.00;50.90;;;;;;6222502;23;20350;-78
2021/06/19 09:30:40;;;;;;;7.43;3.20;;;29.10;51.00;;;;;;6223051;23;19911;-78
2021/06/19 09:33:10;;;;;;;9.38;3.05;;;29.00;49.40;;;;;;6221497;23;20047;-78
2021/06/19 09:35:39;;;;;;;6.03;3.17;;;29.20;49.30;;;;;;6221737;23;20051;-77
2021/06/19 09:38:08;;;;;;;7.28;3.55;;;29.10;49.60;;;;;;6227528;23;20031;-78
2021/06/19 09:40:38;;;;;;;6.82;3.47;;;29.30;49.80;;;;;;6228778;23;20022;-78
2021/06/19 09:43:07;;;;;;;;;;;29.30;49.50;;;;;;6225314;23;20111;-78
2021/06/19 09:45:36;;;;;;;11.25;3.58;;;29.40;49.30;;;;;;6226871;23;19916;-78
2021/06/19 09:48:04;;;;;;;5.95;2.65;;;29.30;49.90;;;;;;6225063;23;20025;-78
2021/06/19 09:50:31;;;;;;;7.63;3.20;;;29.50;49.20;;;;;;6222968;23;20020;-79
2021/06/19 09:53:12;;;;;;;9.30;3.38;;;29.50;49.00;;;;;;6221494;23;20070;-77
2021/06/19 09:56:05;;;;;;;5.20;3.20;;;29.70;48.90;;;;;;6223643;23;20016;-78
2021/06/19 09:58:44;;;;;;;7.43;3.30;;;29.60;48.50;;;;;;6221783;23;20308;-78
2021/06/19 10:01:12;;;;;;;7.57;3.35;;;29.40;48.80;;;;;;6219104;23;20075;-77
2021/06/19 10:03:53;;;;;;;5.50;2.90;;;29.60;48.80;;;;;;6226417;23;20047;-78
2021/06/19 10:06:20;;;;;;;7.40;3.22;;;29.90;47.70;;;;;;6227504;23;20020;-78
2021/06/19 10:08:49;;;;;;;5.70;3.13;;;30.20;47.50;;;;;;6228902;23;20025;-79
2021/06/19 10:11:16;;;;;;;5.60;2.78;;;30.40;47.10;;;;;;6230523;23;20016;-78
2021/06/19 10:13:46;;;;;;;8.48;3.45;;;30.80;47.00;;;;;;6229281;23;20024;-80
2021/06/19 10:16:15;;;;;;;7.28;2.88;;;30.90;46.10;;;;;;6229594;23;20032;-79
2021/06/19 10:18:43;;;;;;;;;;;31.00;44.60;;;;;;6230312;23;20017;-78
2021/06/19 10:21:12;;;;;;;7.07;2.72;;;31.30;44.10;;;;;;6229169;23;20161;-79
2021/06/19 10:23:39;;;;;;;;;;;31.60;43.30;;;;;;6228166;23;20074;-79
2021/06/19 10:26:07;;;;;;;7.68;3.03;;;32.10;42.30;;;;;;6222940;23;20002;-78
2021/06/19 10:28:43;;;;;;;8.73;3.00;;;32.60;40.20;;;;;;6226332;23;20021;-78
2021/06/19 10:31:12;;;;;;;6.20;2.97;;;33.20;39.90;;;;;;6225733;23;20024;-79
2021/06/19 10:33:41;;;;;;;11.50;3.03;;;33.50;40.10;;;;;;6251837;23;20201;-78
2021/06/19 10:36:10;;;;;;;15.27;4.57;;;33.70;39.80;;;;;;6232115;23;20024;-78
2021/06/19 10:38:49;;;;;;;7.45;2.67;;;33.60;37.30;;;;;;6231015;23;20012;-78
2021/06/19 10:41:18;;;;;;;6.40;2.95;;;33.50;37.80;;;;;;6230572;23;20024;-78
2021/06/19 10:43:47;;;;;;;7.00;2.80;;;34.00;37.20;;;;;;6224905;23;20080;-79
2021/06/19 10:46:36;;;;;;;5.78;2.92;;;35.50;35.00;;;;;;6221780;23;20029;-77
2021/06/19 10:49:38;;;;;;;9.43;2.72;;;36.10;32.40;;;;;;6219448;23;20029;-78
2021/06/19 10:52:35;;;;;;;8.68;3.20;;;37.20;32.00;;;;;;6223915;23;20308;-78
2021/06/19 10:55:33;;;;;;;7.18;2.67;;;37.50;31.40;;;;;;6225133;23;20025;-79
2021/06/19 10:58:17;;;;;;;10.13;2.42;;;37.80;32.00;;;;;;6135107;23;20022;-78
2021/06/19 11:00:46;;;;;;;4.32;2.60;;;37.90;30.80;;;;;;6210491;23;20028;-78
2021/06/19 11:03:18;;;;;;;7.30;3.03;;;38.40;29.60;;;;;;6223893;23;20012;-78
2021/06/19 11:05:57;;;;;;;4.90;2.47;;;37.90;29.90;;;;;;6224670;23;20020;-78
2021/06/19 11:08:25;;;;;;;6.30;2.60;;;38.60;29.40;;;;;;6225537;23;20087;-78
2021/06/19 11:10:55;;;;;;;6.60;2.60;;;38.50;29.50;;;;;;6224141;23;20020;-78
2021/06/19 11:13:48;;;;;;;6.32;3.17;;;39.70;28.40;;;;;;6226139;23;20020;-79
2021/06/19 11:16:50;;;;;;;4.65;2.10;;;40.50;26.80;;;;;;6224285;23;20035;-78
2021/06/19 11:19:47;;;;;;;8.05;2.55;;;40.00;26.40;;;;;;6226394;23;20020;-78
2021/06/19 11:22:43;;;;;;;6.63;2.70;;;40.70;26.60;;;;;;6226230;23;20099;-78
2021/06/19 11:25:16;;;;;;;6.43;2.40;;;42.70;23.70;;;;;;6197747;23;20343;-78
2021/06/19 11:27:55;;;;;;;6.43;3.03;;;41.30;24.10;;;;;;6227449;23;20021;-78
2021/06/19 11:30:51;;;;;;;4.82;2.10;;;41.10;25.10;;;;;;6229872;23;20020;-79
2021/06/19 11:33:52;;;;;;;5.25;2.35;;;40.90;24.20;;;;;;6227440;23;20021;-79
2021/06/19 11:39:35;;;;;;;5.78;3.08;;;41.80;22.40;;;;;;6222078;23;20060;-78
2021/06/19 11:42:04;;;;;;;6.60;2.40;;;43.00;21.70;;;;;;6230972;23;20013;-80
2021/06/19 11:44:34;;;;;;;5.60;2.45;;;42.30;21.00;;;;;;6229879;23;20024;-79
2021/06/19 11:47:07;;;;;;;5.93;1.90;;;42.80;21.80;;;;;;6232363;23;20067;-79
2021/06/19 11:49:45;;;;;;;4.70;2.10;;;44.10;19.60;;;;;;6231651;23;20080;-79
2021/06/19 11:52:18;;;;;;;5.53;1.90;;;44.00;20.40;;;;;;6229741;23;20031;-79
2021/06/19 11:54:54;;;;;;;6.15;2.10;;;41.70;22.00;;;;;;6230045;23;20074;-78
2021/06/19 11:57:27;;;;;;;4.88;1.65;;;41.50;21.30;;;;;;6231418;23;20243;-78
2021/06/19 12:00:07;;;;;;;7.82;2.47;;;41.60;21.00;;;;;;6226497;23;20021;-78
2021/06/19 12:02:39;;;;;;;4.72;2.03;;;41.90;20.80;;;;;;6224991;23;20404;-78
2021/06/19 12:05:15;;;;;;;5.95;2.50;;;42.80;20.50;;;;;;6224669;23;20028;-79
2021/06/19 12:07:44;;;;;;;6.13;2.20;;;43.70;20.40;;;;;;6222832;23;20028;-78
2021/06/19 12:10:30;;;;;;;6.40;2.58;;;44.00;20.90;;;;;;6219961;23;20293;-77
2021/06/19 12:13:04;;;;;;;4.97;2.10;;;43.70;20.30;;;;;;6221608;23;20024;-79
2021/06/19 12:15:33;;;;;;;5.40;2.38;;;44.30;20.50;;;;;;6224592;23;20020;-80
2021/06/19 12:18:03;;;;;;;5.07;1.98;;;45.50;18.50;;;;;;6220699;23;20227;-77
2021/06/19 12:20:31;;;;;;;3.42;1.75;;;45.30;17.90;;;;;;6222060;23;20371;-78
2021/06/19 12:22:58;;;;;;;4.50;1.70;;;44.40;19.60;;;;;;6222315;23;20027;-78
2021/06/19 12:25:31;;;;;;;6.10;2.15;;;46.40;17.50;;;;;;6220007;23;20120;-78
2021/06/19 12:27:58;;;;;;;5.45;2.33;;;46.50;16.70;;;;;;6218738;23;20079;-78
2021/06/19 12:30:26;;;;;;;4.90;1.90;;;46.00;18.20;;;;;;6221556;23;20016;-78
2021/06/19 12:32:54;;;;;;;3.60;1.67;;;46.00;17.90;;;;;;6223129;23;20323;-77
2021/06/19 12:35:21;;;;;;;;;;;45.30;18.10;;;;;;6247510;23;20066;-77
2021/06/19 12:37:54;;;;;;;5.18;2.10;;;46.30;17.50;;;;;;6223763;23;19926;-80
2021/06/19 12:40:26;;;;;;;6.93;2.38;;;46.50;18.00;;;;;;6223632;23;20220;-79
2021/06/19 12:43:07;;;;;;;4.47;2.30;;;47.90;17.60;;;;;;6248662;23;20016;-78
2021/06/19 12:45:36;;;;;;;4.18;2.45;;;47.40;17.20;;;;;;6248658;23;20020;-79
2021/06/19 12:48:07;;;;;;;5.78;2.47;;;45.90;18.10;;;;;;6226784;23;20259;-79
2021/06/19 12:50:39;;;;;;;6.25;2.30;;;44.60;19.30;;;;;;6223380;23;20087;-79
2021/06/19 12:53:10;;;;;;;6.75;2.15;;;45.60;18.80;;;;;;6226216;23;20067;-79
2021/06/19 12:55:39;;;;;;;7.15;2.17;;;45.00;19.20;;;;;;6228130;23;20024;-79
2021/06/19 12:58:14;;;;;;;4.35;2.42;;;43.30;20.50;;;;;;6227956;23;20063;-79
2021/06/19 13:00:46;;;;;;;4.95;2.08;;;43.70;20.80;;;;;;6219798;23;20021;-79
2021/06/19 13:03:17;;;;;;;5.05;2.40;;;45.00;19.40;;;;;;6226402;23;20075;-79